Time;durP1;ratioP1;P1;durP2;ratioP2;P2;SDS_P1;SDS_P2;PMS_P1;PMS_P2;Temp;Humidity;BMP_temperature;BMP_pressure;BME280_temperature;BME280_humidity;BME280_pressure;Samples;Min_cycle;Max_cycle;Signal;HPM_P1;HPM_P2
2019/07/24 00:01:04;;;;;;;6.2;4.9;;;;;;;20.7;70.46484;941.3289;;;;
2019/07/24 00:04:36;;;;;;;18.5;6.3;;;;;;;20.67;70.83594;941.2851;;;;
2019/07/24 00:07:52;;;;;;;6.5;4.9;;;;;;;20.73;70.4375;941.2941;;;;
2019/07/24 00:11:14;;;;;;;9;5.4;;;;;;;20.79;69.99023;941.2432;;;;
2019/07/24 00:14:35;;;;;;;6.3;5.1;;;;;;;20.53;70.91797;941.2509;;;;
2019/07/24 00:17:54;;;;;;;9;5.1;;;;;;;20.45;71.04492;941.2528;;;;
2019/07/24 00:21:12;;;;;;;7.6;4.8;;;;;;;20.55;70.59375;941.2529;;;;
2019/07/24 00:24:32;;;;;;;6.2;5.1;;;;;;;20.46;70.87305;941.23;;;;
2019/07/24 00:27:52;;;;;;;6.8;5;;;;;;;20.52;70.625;941.2141;;;;
2019/07/24 00:31:16;;;;;;;7.1;5.1;;;;;;;20.52;70.81152;941.2051;;;;
2019/07/24 00:34:38;;;;;;;6.8;4.9;;;;;;;20.73;70.44727;941.2253;;;;
2019/07/24 00:37:55;;;;;;;6.8;5.3;;;;;;;20.48;70.9209;941.1633;;;;
2019/07/24 00:41:13;;;;;;;5.5;5;;;;;;;20.31;71.72266;941.1287;;;;
2019/07/24 00:44:34;;;;;;;8.1;5.2;;;;;;;20.38;71.5127;941.085;;;;
2019/07/24 00:47:53;;;;;;;7;5;;;;;;;20.45;71.64063;941.1105;;;;
2019/07/24 00:51:08;;;;;;;7.7;5.4;;;;;;;20.41;71.45996;941.0723;;;;
2019/07/24 00:54:31;;;;;;;7.6;5.5;;;;;;;20.26;71.97266;941.0401;;;;
2019/07/24 00:57:48;;;;;;;6.3;5.4;;;;;;;20.2;72.04492;940.9391;;;;
2019/07/24 01:01:05;;;;;;;7.9;5.8;;;;;;;19.87;73.34473;940.9035;;;;
2019/07/24 01:04:26;;;;;;;7.3;5.5;;;;;;;19.82;73.63965;940.91;;;;
2019/07/24 01:07:43;;;;;;;6.6;5.3;;;;;;;19.82;73.70801;940.9578;;;;
2019/07/24 01:10:56;;;;;;;7.8;5.6;;;;;;;19.94;72.86426;940.9863;;;;
2019/07/24 01:14:15;;;;;;;7.9;5.7;;;;;;;20.01;72.56152;940.9207;;;;
2019/07/24 01:17:36;;;;;;;6.3;5.4;;;;;;;20.06;72.30176;940.927;;;;
2019/07/24 01:20:51;;;;;;;6.6;5.1;;;;;;;19.82;73.41602;940.9061;;;;
2019/07/24 01:24:06;;;;;;;7.4;5.7;;;;;;;19.79;73.78516;940.9487;;;;
2019/07/24 01:27:20;;;;;;;6.3;5.7;;;;;;;20.16;72.39941;940.8755;;;;
2019/07/24 01:30:35;;;;;;;8.3;5.6;;;;;;;20;72.94629;940.8699;;;;
2019/07/24 01:33:51;;;;;;;6.3;5.3;;;;;;;19.82;73.90625;940.8414;;;;
2019/07/24 01:37:10;;;;;;;9.7;5.7;;;;;;;20.05;73.05859;940.8384;;;;
2019/07/24 01:40:26;;;;;;;6.7;5.1;;;;;;;20.13;72.48828;940.8754;;;;
2019/07/24 01:43:41;;;;;;;6.1;5.5;;;;;;;20.05;72.74512;940.7986;;;;
2019/07/24 01:47:05;;;;;;;7.1;5.7;;;;;;;19.68;74.15137;940.7724;;;;
2019/07/24 01:50:27;;;;;;;9.7;6.1;;;;;;;19.55;74.79492;940.6724;;;;
2019/07/24 01:53:44;;;;;;;9.5;6;;;;;;;19.26;75.75879;940.6656;;;;
2019/07/24 01:56:59;;;;;;;6.3;5.7;;;;;;;19.12;76.41016;940.6796;;;;
2019/07/24 02:00:16;;;;;;;8.9;6;;;;;;;19.2;76.26074;940.673;;;;
2019/07/24 02:03:36;;;;;;;6.7;6;;;;;;;19.43;75.3457;940.6526;;;;
2019/07/24 02:06:57;;;;;;;6;5.4;;;;;;;19.42;75.34277;940.5728;;;;
2019/07/24 02:10:17;;;;;;;10.4;5.9;;;;;;;19.54;74.7002;940.5917;;;;
2019/07/24 02:13:34;;;;;;;6.5;5.9;;;;;;;19.46;74.91895;940.5285;;;;
2019/07/24 02:16:56;;;;;;;8;5.9;;;;;;;19.59;74.62598;940.5123;;;;
2019/07/24 02:20:13;;;;;;;7.6;6;;;;;;;19.43;75.05273;940.5503;;;;
2019/07/24 02:23:32;;;;;;;6.8;5.7;;;;;;;19.44;75.09082;940.5742;;;;
2019/07/24 02:26:49;;;;;;;11.9;6.8;;;;;;;19.26;75.90918;940.5414;;;;
2019/07/24 02:30:10;;;;;;;8.5;6.7;;;;;;;19.32;75.76855;940.5814;;;;
2019/07/24 02:33:26;;;;;;;8.8;7;;;;;;;19.4;75.38672;940.5876;;;;
2019/07/24 02:36:47;;;;;;;9.2;6.8;;;;;;;19.39;75.60645;940.6194;;;;
2019/07/24 02:40:01;;;;;;;10.9;7;;;;;;;19.49;74.92383;940.6499;;;;
2019/07/24 02:43:19;;;;;;;9.3;7.4;;;;;;;19.37;75.33496;940.6651;;;;
2019/07/24 02:46:38;;;;;;;12;7.9;;;;;;;19.42;75.09766;940.7014;;;;
2019/07/24 02:49:53;;;;;;;10.2;7.2;;;;;;;19.06;76.52832;940.6903;;;;
2019/07/24 02:53:09;;;;;;;7.2;6.5;;;;;;;19.07;76.48242;940.6853;;;;
2019/07/24 02:56:25;;;;;;;8.2;6.3;;;;;;;18.89;77.55664;940.69;;;;
2019/07/24 02:59:39;;;;;;;8.8;6.4;;;;;;;18.83;77.76758;940.6758;;;;
2019/07/24 03:03:01;;;;;;;8.1;6.7;;;;;;;18.84;77.82715;940.666;;;;
2019/07/24 03:06:16;;;;;;;9.4;7.1;;;;;;;18.75;78.19531;940.6809;;;;
2019/07/24 03:09:34;;;;;;;8.7;6.9;;;;;;;18.82;77.73145;940.6638;;;;
2019/07/24 03:12:49;;;;;;;8.8;7.4;;;;;;;18.96;77.13867;940.755;;;;
2019/07/24 03:16:05;;;;;;;10.7;7.5;;;;;;;19.08;76.92773;940.7609;;;;
2019/07/24 03:19:22;;;;;;;9.9;7.5;;;;;;;18.7;78.26758;940.7481;;;;
2019/07/24 03:22:40;;;;;;;8.8;7.7;;;;;;;18.59;78.62012;940.6406;;;;
2019/07/24 03:25:57;;;;;;;12;7.7;;;;;;;18.63;78.53516;940.6791;;;;
2019/07/24 03:29:13;;;;;;;12.4;7.5;;;;;;;18.8;77.76172;940.6713;;;;
2019/07/24 03:32:31;;;;;;;11.9;7.5;;;;;;;18.54;78.85645;940.7018;;;;
2019/07/24 03:35:44;;;;;;;11.6;7.3;;;;;;;18.51;79.02637;940.6926;;;;
2019/07/24 03:39:07;;;;;;;10.8;7.3;;;;;;;18.49;79.19727;940.6736;;;;
2019/07/24 03:42:33;;;;;;;10.7;7.4;;;;;;;18.5;79.23242;940.6906;;;;
2019/07/24 03:45:50;;;;;;;10.7;7.7;;;;;;;18.52;78.99121;940.6877;;;;
2019/07/24 03:49:05;;;;;;;10.2;7.6;;;;;;;18.41;79.41309;940.7392;;;;
2019/07/24 03:52:21;;;;;;;15.2;8.1;;;;;;;18.5;78.98828;940.7292;;;;
2019/07/24 03:55:38;;;;;;;9;6.7;;;;;;;18.7;78.03613;940.7263;;;;
2019/07/24 03:58:53;;;;;;;8.7;6.7;;;;;;;18.74;77.58887;940.8199;;;;
2019/07/24 04:06:47;;;;;;;10.3;6.9;;;;;;;18.67;77.79688;940.739;;;;
2019/07/24 04:10:09;;;;;;;9.3;6.3;;;;;;;18.53;78.26172;940.7811;;;;
2019/07/24 04:13:28;;;;;;;9;6.7;;;;;;;18.45;78.81738;940.7736;;;;
2019/07/24 04:17:01;;;;;;;7.7;6.9;;;;;;;18.43;79.05664;940.7586;;;;
2019/07/24 04:20:21;;;;;;;13.2;7.7;;;;;;;18.3;79.80078;940.7791;;;;
2019/07/24 04:23:36;;;;;;;10.2;7.3;;;;;;;18.38;79.59473;940.7261;;;;
2019/07/24 04:27:00;;;;;;;8.3;7.2;;;;;;;18.44;79.38477;940.7318;;;;
2019/07/24 04:30:18;;;;;;;9.6;7.1;;;;;;;18.57;78.78027;940.707;;;;
2019/07/24 04:33:35;;;;;;;10.1;7.2;;;;;;;18.52;79.0625;940.795;;;;
2019/07/24 04:36:52;;;;;;;12.4;7.6;;;;;;;18.53;79.15723;940.7762;;;;
2019/07/24 04:40:08;;;;;;;11.8;7.7;;;;;;;18.55;79.17383;940.8081;;;;
2019/07/24 04:43:27;;;;;;;8.8;7.3;;;;;;;18.59;79.05078;940.7349;;;;
2019/07/24 04:46:46;;;;;;;8.2;7.1;;;;;;;18.96;78.06934;940.7849;;;;
2019/07/24 04:50:01;;;;;;;8.3;7.4;;;;;;;19.04;77.25684;940.7617;;;;
2019/07/24 04:53:25;;;;;;;11;7;;;;;;;18.65;78.95898;940.7965;;;;
2019/07/24 04:56:39;;;;;;;9.4;7.4;;;;;;;18.75;78.43945;940.802;;;;
2019/07/24 04:59:56;;;;;;;8.9;7.7;;;;;;;19.26;76.86621;940.8117;;;;
2019/07/24 05:03:25;;;;;;;15.6;8.3;;;;;;;19.3;76.47559;940.8586;;;;
2019/07/24 05:06:55;;;;;;;12.6;8.2;;;;;;;19.39;76.14258;940.8649;;;;
2019/07/24 05:10:18;;;;;;;11.9;8.3;;;;;;;19.04;77.55957;940.8272;;;;
2019/07/24 05:13:44;;;;;;;10.2;8.2;;;;;;;18.91;78.16602;940.7647;;;;
2019/07/24 05:16:57;;;;;;;13.5;9.4;;;;;;;18.88;78.30078;940.7814;;;;
2019/07/24 05:20:21;;;;;;;14.9;9.5;;;;;;;19.05;77.72461;940.7737;;;;
2019/07/24 05:23:40;;;;;;;15.9;9;;;;;;;20.2;73.50391;940.7192;;;;
2019/07/24 05:27:13;;;;;;;12;7.1;;;;;;;22.44;65.13477;940.6049;;;;
2019/07/24 05:30:33;;;;;;;13.8;7.1;;;;;;;23.85;60.25684;940.6503;;;;
2019/07/24 05:34:07;;;;;;;11.5;6.5;;;;;;;25;56.36621;940.6772;;;;
2019/07/24 05:37:30;;;;;;;15;6;;;;;;;25.42;54.91895;940.5637;;;;
2019/07/24 05:41:10;;;;;;;12.1;6.1;;;;;;;25.65;54.19141;940.5597;;;;
2019/07/24 05:45:10;;;;;;;12.5;5.5;;;;;;;26.44;52.98438;940.553;;;;
2019/07/24 05:48:42;;;;;;;7.5;5.1;;;;;;;27.88;48.93945;940.5574;;;;
2019/07/24 05:52:26;;;;;;;9.2;5.3;;;;;;;29.21;44.62988;940.5817;;;;
2019/07/24 05:56:06;;;;;;;6.5;4.8;;;;;;;29.9;42.7168;940.5161;;;;
2019/07/24 05:59:40;;;;;;;11.8;5.2;;;;;;;28.84;44.72266;940.5435;;;;
2019/07/24 06:05:49;;;;;;;9.4;4.9;;;;;;;30.96;40.50977;940.5065;;;;
2019/07/24 06:09:10;;;;;;;7.1;4.6;;;;;;;31.91;38.20996;940.4774;;;;
2019/07/24 06:12:30;;;;;;;6.8;4.9;;;;;;;32.26;37.7002;940.4628;;;;
2019/07/24 06:15:48;;;;;;;8.1;5;;;;;;;33.19;36.38379;940.3965;;;;
2019/07/24 06:19:03;;;;;;;9.8;6.1;;;;;;;33.25;36.30469;940.4517;;;;
2019/07/24 06:22:21;;;;;;;10.9;4.9;;;;;;;33.96;34.85645;940.3267;;;;
2019/07/24 06:25:36;;;;;;;5.1;4.1;;;;;;;34.2;34.40527;940.3527;;;;
2019/07/24 06:28:51;;;;;;;5.3;4.3;;;;;;;33.95;34.10938;940.385;;;;
2019/07/24 06:32:08;;;;;;;8.7;4.6;;;;;;;33.45;35.12988;940.3535;;;;
2019/07/24 06:35:24;;;;;;;9.2;4.8;;;;;;;33.92;34.27539;940.2902;;;;
2019/07/24 06:38:49;;;;;;;11.7;4.8;;;;;;;33.82;33.2334;940.3292;;;;
2019/07/24 06:42:04;;;;;;;8.1;4.4;;;;;;;33.36;35.20703;940.3608;;;;
2019/07/24 06:45:27;;;;;;;5.7;4.3;;;;;;;34.72;32.22656;940.413;;;;
2019/07/24 06:48:44;;;;;;;7.1;4.5;;;;;;;35.57;31.2832;940.4188;;;;
2019/07/24 06:52:00;;;;;;;7.9;5;;;;;;;35.66;30.08105;940.3895;;;;
2019/07/24 06:55:22;;;;;;;7.5;5.1;;;;;;;35.03;31.30664;940.3459;;;;
2019/07/24 06:58:52;;;;;;;9.1;4.8;;;;;;;36.01;29.58398;940.4012;;;;
2019/07/24 07:02:09;;;;;;;7;4.9;;;;;;;35.66;30.99902;940.42;;;;
2019/07/24 07:05:36;;;;;;;6.5;5.4;;;;;;;36.34;30.16211;940.4384;;;;
2019/07/24 07:08:58;;;;;;;8.6;5;;;;;;;38.46;26.9707;940.4192;;;;
2019/07/24 07:14:37;;;;;;;7.6;3.7;;;;;;;;;;;;;
2019/07/24 07:17:13;;;;;;;6.1;4;;;;;;;;;;;;;
2019/07/24 07:19:53;;;;;;;5.6;3.6;;;;;;;;;;;;;
2019/07/24 07:22:26;;;;;;;5.4;3.7;;;;;;;;;;;;;
2019/07/24 07:25:04;;;;;;;7.3;3.9;;;;;;;;;;;;;
2019/07/24 07:27:47;;;;;;;6.1;3.8;;;;;;;;;;;;;
2019/07/24 07:30:24;;;;;;;8;3.9;;;;;;;;;;;;;
2019/07/24 07:32:58;;;;;;;7.4;3.9;;;;;;;;;;;;;
2019/07/24 07:35:35;;;;;;;5.2;3.8;;;;;;;;;;;;;
2019/07/24 07:38:13;;;;;;;5.9;3.9;;;;;;;;;;;;;
2019/07/24 07:40:50;;;;;;;4.6;3.7;;;;;;;;;;;;;
2019/07/24 07:43:24;;;;;;;4.5;3.7;;;;;;;;;;;;;
2019/07/24 07:46:02;;;;;;;6.8;4.1;;;;;;;;;;;;;
2019/07/24 07:48:39;;;;;;;5.2;4;;;;;;;;;;;;;
2019/07/24 07:51:13;;;;;;;5.7;3.8;;;;;;;;;;;;;
2019/07/24 07:53:49;;;;;;;5.7;4;;;;;;;;;;;;;
2019/07/24 07:56:26;;;;;;;5.2;3.7;;;;;;;;;;;;;
2019/07/24 07:59:11;;;;;;;5.3;3.6;;;;;;;;;;;;;
2019/07/24 08:01:59;;;;;;;6.4;4;;;;;;;;;;;;;
2019/07/24 08:04:34;;;;;;;5;3.7;;;;;;;;;;;;;
2019/07/24 08:07:15;;;;;;;6.4;3.9;;;;;;;;;;;;;
2019/07/24 08:09:52;;;;;;;5.1;3.8;;;;;;;;;;;;;
2019/07/24 08:12:27;;;;;;;5.6;3.6;;;;;;;;;;;;;
2019/07/24 08:15:01;;;;;;;4.2;3.4;;;;;;;;;;;;;
2019/07/24 08:17:37;;;;;;;5.4;3.2;;;;;;;;;;;;;
2019/07/24 08:20:11;;;;;;;8;3.3;;;;;;;;;;;;;
2019/07/24 08:22:49;;;;;;;4.4;3.1;;;;;;;;;;;;;
2019/07/24 08:25:24;;;;;;;6.1;2.8;;;;;;;;;;;;;
2019/07/24 08:28:03;;;;;;;9;3.2;;;;;;;;;;;;;
2019/07/24 08:30:36;;;;;;;7.8;3.1;;;;;;;;;;;;;
2019/07/24 08:33:10;;;;;;;5.4;3;;;;;;;;;;;;;
2019/07/24 08:35:53;;;;;;;9.7;3.5;;;;;;;;;;;;;
2019/07/24 08:38:32;;;;;;;8.2;3.3;;;;;;;;;;;;;
2019/07/24 08:41:10;;;;;;;5;3.2;;;;;;;;;;;;;
2019/07/24 08:43:46;;;;;;;7.7;3.3;;;;;;;;;;;;;
2019/07/24 08:46:23;;;;;;;5.7;3.3;;;;;;;;;;;;;
2019/07/24 08:49:02;;;;;;;5.2;3.1;;;;;;;;;;;;;
2019/07/24 08:51:40;;;;;;;7.1;3.3;;;;;;;;;;;;;
2019/07/24 08:54:17;;;;;;;5.2;3.1;;;;;;;;;;;;;
2019/07/24 08:56:59;;;;;;;7.4;3;;;;;;;;;;;;;
2019/07/24 08:59:35;;;;;;;5.1;2.9;;;;;;;;;;;;;
2019/07/24 09:02:13;;;;;;;6.1;3.4;;;;;;;;;;;;;
2019/07/24 09:04:47;;;;;;;7.6;3.4;;;;;;;;;;;;;
2019/07/24 09:07:23;;;;;;;5.3;3.1;;;;;;;;;;;;;
2019/07/24 09:10:04;;;;;;;7.9;3.8;;;;;;;;;;;;;
2019/07/24 09:12:40;;;;;;;6.3;3.5;;;;;;;;;;;;;
2019/07/24 09:15:20;;;;;;;5.5;3.3;;;;;;;;;;;;;
2019/07/24 09:18:00;;;;;;;5.9;3.6;;;;;;;;;;;;;
2019/07/24 09:20:33;;;;;;;4;3.4;;;;;;;;;;;;;
2019/07/24 09:23:06;;;;;;;5;3.7;;;;;;;;;;;;;
2019/07/24 09:25:49;;;;;;;5.2;3.3;;;;;;;;;;;;;
2019/07/24 09:28:27;;;;;;;6.6;3.6;;;;;;;;;;;;;
2019/07/24 09:31:05;;;;;;;5.5;3.7;;;;;;;;;;;;;
2019/07/24 09:33:38;;;;;;;5.2;3.8;;;;;;;;;;;;;
2019/07/24 09:36:11;;;;;;;5.6;4;;;;;;;;;;;;;
2019/07/24 09:38:55;;;;;;;7.4;3.8;;;;;;;;;;;;;
2019/07/24 09:41:32;;;;;;;4.4;3.8;;;;;;;;;;;;;
2019/07/24 09:44:06;;;;;;;4.7;3.8;;;;;;;;;;;;;
2019/07/24 09:46:46;;;;;;;6;4.1;;;;;;;;;;;;;
2019/07/24 09:49:30;;;;;;;6.9;4.1;;;;;;;;;;;;;
2019/07/24 09:52:11;;;;;;;4.7;4.1;;;;;;;;;;;;;
2019/07/24 09:54:49;;;;;;;4.6;4.1;;;;;;;;;;;;;
2019/07/24 09:57:24;;;;;;;4.8;3.8;;;;;;;;;;;;;
2019/07/24 10:00:04;;;;;;;8.3;4.1;;;;;;;;;;;;;
2019/07/24 10:02:44;;;;;;;7.1;4.3;;;;;;;;;;;;;
2019/07/24 10:05:20;;;;;;;8;4.2;;;;;;;;;;;;;
2019/07/24 10:07:54;;;;;;;8.3;4.3;;;;;;;;;;;;;
2019/07/24 10:10:29;;;;;;;5.9;4.1;;;;;;;;;;;;;
2019/07/24 10:13:04;;;;;;;6;4.1;;;;;;;;;;;;;
2019/07/24 10:15:42;;;;;;;4.9;3.9;;;;;;;;;;;;;
2019/07/24 10:18:17;;;;;;;8.2;4;;;;;;;;;;;;;
2019/07/24 10:20:55;;;;;;;6.2;4.3;;;;;;;;;;;;;
2019/07/24 10:23:34;;;;;;;5.8;4.1;;;;;;;;;;;;;
2019/07/24 10:26:16;;;;;;;5.4;4.1;;;;;;;;;;;;;
2019/07/24 10:28:50;;;;;;;4.9;3.8;;;;;;;;;;;;;
2019/07/24 10:31:28;;;;;;;8;4.2;;;;;;;;;;;;;
2019/07/24 10:34:01;;;;;;;4.5;3.9;;;;;;;;;;;;;
2019/07/24 10:36:39;;;;;;;6;4.2;;;;;;;;;;;;;
2019/07/24 10:39:24;;;;;;;5.5;4.1;;;;;;;;;;;;;
2019/07/24 10:42:03;;;;;;;5;4.1;;;;;;;;;;;;;
2019/07/24 10:44:40;;;;;;;4.1;3.7;;;;;;;;;;;;;
2019/07/24 10:47:13;;;;;;;7.5;4.1;;;;;;;;;;;;;
2019/07/24 10:49:52;;;;;;;6.4;4.2;;;;;;;;;;;;;
2019/07/24 10:52:27;;;;;;;8.9;4.3;;;;;;;;;;;;;
2019/07/24 10:55:03;;;;;;;7.1;4.1;;;;;;;;;;;;;
2019/07/24 10:57:38;;;;;;;11.1;4.2;;;;;;;;;;;;;
2019/07/24 11:00:16;;;;;;;5.3;3.9;;;;;;;;;;;;;
2019/07/24 11:02:53;;;;;;;6.4;4;;;;;;;;;;;;;
2019/07/24 11:05:30;;;;;;;5.6;4.3;;;;;;;;;;;;;
2019/07/24 11:08:04;;;;;;;6.9;3.8;;;;;;;;;;;;;
2019/07/24 11:10:38;;;;;;;7.3;4.1;;;;;;;;;;;;;
2019/07/24 11:13:15;;;;;;;10.7;4.3;;;;;;;;;;;;;
2019/07/24 11:15:52;;;;;;;4.3;3.9;;;;;;;;;;;;;
2019/07/24 11:18:27;;;;;;;7.2;4.1;;;;;;;;;;;;;
2019/07/24 11:21:10;;;;;;;5.9;4;;;;;;;;;;;;;
2019/07/24 11:23:46;;;;;;;5.6;4;;;;;;;;;;;;;
2019/07/24 11:26:25;;;;;;;7.4;4.1;;;;;;;;;;;;;
2019/07/24 11:29:01;;;;;;;11.2;4;;;;;;;;;;;;;
2019/07/24 11:31:36;;;;;;;6.6;4.4;;;;;;;;;;;;;
2019/07/24 11:34:17;;;;;;;6.9;4.3;;;;;;;;;;;;;
2019/07/24 11:36:56;;;;;;;9.1;4.5;;;;;;;;;;;;;
2019/07/24 11:39:32;;;;;;;5.1;4.6;;;;;;;;;;;;;
2019/07/24 11:42:08;;;;;;;6.7;4.4;;;;;;;;;;;;;
2019/07/24 11:44:45;;;;;;;8.2;4.7;;;;;;;;;;;;;
2019/07/24 11:47:19;;;;;;;6.3;4.4;;;;;;;;;;;;;
2019/07/24 11:49:55;;;;;;;6.7;4.6;;;;;;;;;;;;;
2019/07/24 11:52:30;;;;;;;8.2;5.1;;;;;;;;;;;;;
2019/07/24 11:55:10;;;;;;;8.3;4.6;;;;;;;;;;;;;
2019/07/24 11:57:45;;;;;;;6.8;4.9;;;;;;;;;;;;;
2019/07/24 12:00:19;;;;;;;8.2;4.7;;;;;;;;;;;;;
2019/07/24 12:02:55;;;;;;;6.2;4.8;;;;;;;;;;;;;
2019/07/24 12:05:28;;;;;;;8.9;5.2;;;;;;;;;;;;;
2019/07/24 12:08:03;;;;;;;9.6;4.9;;;;;;;;;;;;;
2019/07/24 12:10:44;;;;;;;11.5;5.5;;;;;;;;;;;;;
2019/07/24 12:13:21;;;;;;;6.5;4.9;;;;;;;;;;;;;
2019/07/24 12:15:59;;;;;;;9.7;4.8;;;;;;;;;;;;;
2019/07/24 12:18:33;;;;;;;9.2;5;;;;;;;;;;;;;
2019/07/24 12:21:09;;;;;;;7.6;4.8;;;;;;;;;;;;;
2019/07/24 12:23:48;;;;;;;5.9;4.9;;;;;;;;;;;;;
2019/07/24 12:26:26;;;;;;;6.2;4.9;;;;;;;;;;;;;
2019/07/24 12:29:01;;;;;;;8.5;5.1;;;;;;;;;;;;;
2019/07/24 12:31:44;;;;;;;11;5.4;;;;;;;;;;;;;
2019/07/24 12:34:26;;;;;;;9.2;5.4;;;;;;;;;;;;;
2019/07/24 12:37:04;;;;;;;6.1;5.2;;;;;;;;;;;;;
2019/07/24 12:39:38;;;;;;;6.8;5;;;;;;;;;;;;;
2019/07/24 12:42:15;;;;;;;8.3;5;;;;;;;;;;;;;
2019/07/24 12:45:08;;;;;;;8.5;5.4;;;;;;;;;;;;;
2019/07/24 12:47:47;;;;;;;5.9;5.2;;;;;;;;;;;;;
2019/07/24 12:50:26;;;;;;;7.5;5.1;;;;;;;;;;;;;
2019/07/24 12:53:03;;;;;;;7.9;5.1;;;;;;;;;;;;;
2019/07/24 12:55:49;;;;;;;8.5;5.1;;;;;;;;;;;;;
2019/07/24 12:58:29;;;;;;;8.4;4.9;;;;;;;;;;;;;
2019/07/24 13:01:04;;;;;;;6.2;4.9;;;;;;;;;;;;;
2019/07/24 13:03:44;;;;;;;8.4;5.3;;;;;;;;;;;;;
2019/07/24 13:06:18;;;;;;;6.8;4.9;;;;;;;;;;;;;
2019/07/24 13:11:40;;;;;;;6.3;4.7;;;;;;;;;;;;;
2019/07/24 13:14:35;;;;;;;24.1;5.8;;;;;;;;;;;;;
2019/07/24 13:17:14;;;;;;;6.2;4.7;;;;;;;;;;;;;
2019/07/24 13:19:54;;;;;;;8.8;4.7;;;;;;;;;;;;;
2019/07/24 13:22:30;;;;;;;7.1;4.8;;;;;;;;;;;;;
2019/07/24 13:25:08;;;;;;;7.9;4.8;;;;;;;;;;;;;
2019/07/24 13:27:49;;;;;;;8.9;5.1;;;;;;;;;;;;;
2019/07/24 13:30:25;;;;;;;6.5;4.9;;;;;;;;;;;;;
2019/07/24 13:32:59;;;;;;;5.9;4.9;;;;;;;;;;;;;
2019/07/24 13:35:36;;;;;;;6.2;4.8;;;;;;;;;;;;;
2019/07/24 13:38:10;;;;;;;6.2;5;;;;;;;;;;;;;
2019/07/24 13:40:48;;;;;;;9.3;4.8;;;;;;;;;;;;;
2019/07/24 13:43:43;;;;;;;7.1;5;;;;;;;;;;;;;
2019/07/24 13:46:24;;;;;;;9.1;4.8;;;;;;;;;;;;;
2019/07/24 13:49:02;;;;;;;6.5;4.8;;;;;;;;;;;;;
2019/07/24 13:51:38;;;;;;;6.8;5;;;;;;;;;;;;;
2019/07/24 13:54:13;;;;;;;7.5;5.2;;;;;;;;;;;;;
2019/07/24 13:56:54;;;;;;;7.1;5.2;;;;;;;;;;;;;
2019/07/24 13:59:31;;;;;;;9.8;5.4;;;;;;;;;;;;;
2019/07/24 14:02:07;;;;;;;8.4;5.2;;;;;;;;;;;;;
2019/07/24 14:04:54;;;;;;;10.1;5.3;;;;;;;;;;;;;
2019/07/24 14:07:33;;;;;;;7.3;5.4;;;;;;;;;;;;;
2019/07/24 14:10:08;;;;;;;7.6;5.4;;;;;;;;;;;;;
2019/07/24 14:12:44;;;;;;;6.2;5.6;;;;;;;;;;;;;
2019/07/24 14:15:19;;;;;;;8.4;5.6;;;;;;;;;;;;;
2019/07/24 14:17:55;;;;;;;10.3;5.4;;;;;;;;;;;;;
2019/07/24 14:20:32;;;;;;;7.5;5.2;;;;;;;;;;;;;
2019/07/24 14:23:13;;;;;;;9.4;5.3;;;;;;;;;;;;;
2019/07/24 14:25:48;;;;;;;9.6;5.2;;;;;;;;;;;;;
2019/07/24 14:28:32;;;;;;;5.9;5.1;;;;;;;;;;;;;
2019/07/24 14:31:12;;;;;;;13.5;5.4;;;;;;;;;;;;;
2019/07/24 14:33:46;;;;;;;15.9;5.9;;;;;;;;;;;;;
2019/07/24 14:36:25;;;;;;;12;5.8;;;;;;;;;;;;;
2019/07/24 14:39:04;;;;;;;9.5;5.7;;;;;;;;;;;;;
2019/07/24 14:41:44;;;;;;;9.4;5.4;;;;;;;;;;;;;
2019/07/24 14:44:21;;;;;;;9.1;5.6;;;;;;;;;;;;;
2019/07/24 14:47:04;;;;;;;7.9;5.3;;;;;;;;;;;;;
2019/07/24 14:49:43;;;;;;;7.7;5.4;;;;;;;;;;;;;
2019/07/24 14:52:24;;;;;;;9.4;5.6;;;;;;;;;;;;;
2019/07/24 14:54:58;;;;;;;8.7;5.3;;;;;;;;;;;;;
2019/07/24 14:57:39;;;;;;;7.6;5.4;;;;;;;;;;;;;
2019/07/24 15:00:18;;;;;;;8.8;5.3;;;;;;;;;;;;;
2019/07/24 15:02:52;;;;;;;8.5;5.5;;;;;;;;;;;;;
2019/07/24 15:05:29;;;;;;;9;5.7;;;;;;;;;;;;;
2019/07/24 15:08:06;;;;;;;10;5.5;;;;;;;;;;;;;
2019/07/24 15:10:44;;;;;;;10.3;5.6;;;;;;;;;;;;;
2019/07/24 15:13:24;;;;;;;9.8;5.4;;;;;;;;;;;;;
2019/07/24 15:16:08;;;;;;;10.7;5.5;;;;;;;;;;;;;
2019/07/24 15:18:52;;;;;;;10.4;5.3;;;;;;;;;;;;;
2019/07/24 15:21:32;;;;;;;8;5.5;;;;;;;;;;;;;
2019/07/24 15:24:11;;;;;;;7.6;5.6;;;;;;;;;;;;;
2019/07/24 15:26:48;;;;;;;7.2;5.9;;;;;;;;;;;;;
2019/07/24 15:29:38;;;;;;;10.4;6.2;;;;;;;;;;;;;
2019/07/24 15:32:15;;;;;;;11;6.1;;;;;;;;;;;;;
2019/07/24 15:34:48;;;;;;;14.9;6.2;;;;;;;;;;;;;
2019/07/24 15:37:31;;;;;;;10.3;5.9;;;;;;;;;;;;;
2019/07/24 15:40:12;;;;;;;9.5;6;;;;;;;;;;;;;
2019/07/24 15:42:49;;;;;;;15.9;6.4;;;;;;;;;;;;;
2019/07/24 15:45:24;;;;;;;12.4;6.1;;;;;;;;;;;;;
2019/07/24 15:47:57;;;;;;;11.3;6;;;;;;;;;;;;;
2019/07/24 15:50:31;;;;;;;12.5;6.4;;;;;;;;;;;;;
2019/07/24 15:53:18;;;;;;;8.9;6.5;;;;;;;;;;;;;
2019/07/24 15:55:56;;;;;;;10.3;5.9;;;;;;;;;;;;;
2019/07/24 15:58:34;;;;;;;11.1;6.3;;;;;;;;;;;;;
2019/07/24 16:01:12;;;;;;;8.1;6;;;;;;;;;;;;;
2019/07/24 16:03:51;;;;;;;11.7;5.9;;;;;;;;;;;;;
2019/07/24 16:06:25;;;;;;;8.1;5.9;;;;;;;;;;;;;
2019/07/24 16:09:02;;;;;;;10.1;6;;;;;;;;;;;;;
2019/07/24 16:11:41;;;;;;;10.5;6.2;;;;;;;;;;;;;
2019/07/24 16:14:17;;;;;;;9.8;5.9;;;;;;;;;;;;;
2019/07/24 16:16:51;;;;;;;8;5.8;;;;;;;;;;;;;
2019/07/24 16:19:24;;;;;;;10.6;5.6;;;;;;;;;;;;;
2019/07/24 16:22:00;;;;;;;11.2;6.2;;;;;;;;;;;;;
2019/07/24 16:24:44;;;;;;;19.5;6.2;;;;;;;;;;;;;
2019/07/24 16:27:22;;;;;;;7.4;6;;;;;;;;;;;;;
2019/07/24 16:30:01;;;;;;;10.4;5.6;;;;;;;;;;;;;
2019/07/24 16:32:37;;;;;;;12.5;5.9;;;;;;;;;;;;;
2019/07/24 16:35:14;;;;;;;10.5;5.6;;;;;;;;;;;;;
2019/07/24 16:37:55;;;;;;;11.9;6.1;;;;;;;;;;;;;
2019/07/24 16:40:28;;;;;;;7.8;5.5;;;;;;;;;;;;;
2019/07/24 16:43:04;;;;;;;10.8;6;;;;;;;;;;;;;
2019/07/24 16:45:39;;;;;;;8.6;5.6;;;;;;;;;;;;;
2019/07/24 16:48:15;;;;;;;10.2;6;;;;;;;;;;;;;
2019/07/24 16:50:49;;;;;;;7.7;5.5;;;;;;;;;;;;;
2019/07/24 16:53:26;;;;;;;9.5;5.9;;;;;;;;;;;;;
2019/07/24 16:56:04;;;;;;;9.1;5.8;;;;;;;;;;;;;
2019/07/24 16:58:41;;;;;;;6.7;5.4;;;;;;;;;;;;;
2019/07/24 17:01:23;;;;;;;7.9;5.7;;;;;;;;;;;;;
2019/07/24 17:03:59;;;;;;;8.7;5.9;;;;;;;;;;;;;
2019/07/24 17:06:41;;;;;;;7.8;6.3;;;;;;;;;;;;;
2019/07/24 17:09:15;;;;;;;10.2;6.2;;;;;;;;;;;;;
2019/07/24 17:11:52;;;;;;;7;5.9;;;;;;;;;;;;;
2019/07/24 17:14:29;;;;;;;7.6;6.3;;;;;;;;;;;;;
2019/07/24 17:17:11;;;;;;;8.1;5.9;;;;;;;;;;;;;
2019/07/24 17:19:50;;;;;;;9.8;5.8;;;;;;;;;;;;;
2019/07/24 17:22:28;;;;;;;8.1;5.5;;;;;;;;;;;;;
2019/07/24 17:25:10;;;;;;;7.4;5.8;;;;;;;;;;;;;
2019/07/24 17:27:49;;;;;;;7.5;6;;;;;;;;;;;;;
2019/07/24 17:30:24;;;;;;;9.8;5.9;;;;;;;;;;;;;
2019/07/24 17:32:57;;;;;;;9.4;6.1;;;;;;;;;;;;;
2019/07/24 17:35:34;;;;;;;10.4;5.9;;;;;;;;;;;;;
2019/07/24 17:38:08;;;;;;;9.2;6.2;;;;;;;;;;;;;
2019/07/24 17:40:45;;;;;;;10.3;6;;;;;;;;;;;;;
2019/07/24 17:43:27;;;;;;;14.7;6.4;;;;;;;;;;;;;
2019/07/24 17:46:01;;;;;;;11.5;6.5;;;;;;;;;;;;;
2019/07/24 17:48:39;;;;;;;17.8;7;;;;;;;;;;;;;
2019/07/24 17:51:18;;;;;;;14;6.5;;;;;;;;;;;;;
2019/07/24 17:54:00;;;;;;;13.6;6.7;;;;;;;;;;;;;
2019/07/24 17:56:37;;;;;;;21.1;7;;;;;;;;;;;;;
2019/07/24 17:59:14;;;;;;;15.7;6.9;;;;;;;;;;;;;
2019/07/24 18:01:58;;;;;;;18.2;7.5;;;;;;;;;;;;;
2019/07/24 18:04:34;;;;;;;13.1;7;;;;;;;;;;;;;
2019/07/24 18:07:09;;;;;;;16.4;6.8;;;;;;;;;;;;;
2019/07/24 18:09:47;;;;;;;12.6;6.7;;;;;;;;;;;;;
2019/07/24 18:12:24;;;;;;;19.6;7;;;;;;;;;;;;;
2019/07/24 18:15:02;;;;;;;16.4;6.8;;;;;;;;;;;;;
2019/07/24 18:17:46;;;;;;;13;7;;;;;;;;;;;;;
2019/07/24 18:20:20;;;;;;;12.3;7.2;;;;;;;;;;;;;
2019/07/24 18:22:56;;;;;;;13.3;7.3;;;;;;;;;;;;;
2019/07/24 18:25:31;;;;;;;14.4;7.4;;;;;;;;;;;;;
2019/07/24 18:28:05;;;;;;;13.6;7.2;;;;;;;;;;;;;
2019/07/24 18:30:38;;;;;;;13.6;7.4;;;;;;;;;;;;;
2019/07/24 18:33:18;;;;;;;8.9;6.9;;;;;;;;;;;;;
2019/07/24 18:35:52;;;;;;;12.8;7.3;;;;;;;;;;;;;
2019/07/24 18:38:28;;;;;;;16.5;7.8;;;;;;;;;;;;;
2019/07/24 18:41:04;;;;;;;17.1;7.5;;;;;;;;;;;;;
2019/07/24 18:43:45;;;;;;;13.3;7.2;;;;;;;;;;;;;
2019/07/24 18:46:23;;;;;;;14.4;7.2;;;;;;;;;;;;;
2019/07/24 18:48:59;;;;;;;10.6;7;;;;;;;;;;;;;
2019/07/24 18:51:39;;;;;;;15.6;8.2;;;;;;;;;;;;;
2019/07/24 18:54:15;;;;;;;13.6;8.5;;;;;;;;;;;;;
2019/07/24 18:56:50;;;;;;;13.2;7.9;;;;;;;;;;;;;
2019/07/24 18:59:32;;;;;;;12.4;8;;;;;;;;;;;;;
2019/07/24 19:02:10;;;;;;;11.6;7.4;;;;;;;;;;;;;
2019/07/24 19:04:47;;;;;;;15.6;8.1;;;;;;;;;;;;;
2019/07/24 19:07:21;;;;;;;12.7;7.9;;;;;;;;;;;;;
2019/07/24 19:09:55;;;;;;;15.1;8.1;;;;;;;;;;;;;
2019/07/24 19:12:32;;;;;;;13.7;7.6;;;;;;;;;;;;;
2019/07/24 19:15:09;;;;;;;14.1;7.8;;;;;;;;;;;;;
2019/07/24 19:17:47;;;;;;;12.4;7.8;;;;;;;;;;;;;
2019/07/24 19:20:21;;;;;;;11.4;7.3;;;;;;;;;;;;;
2019/07/24 19:22:59;;;;;;;12.8;7.2;;;;;;;;;;;;;
2019/07/24 19:25:32;;;;;;;12.5;7.7;;;;;;;;;;;;;
2019/07/24 19:28:05;;;;;;;12.2;8.1;;;;;;;;;;;;;
2019/07/24 19:30:41;;;;;;;14.6;8.7;;;;;;;;;;;;;
2019/07/24 19:33:19;;;;;;;17.9;8.9;;;;;;;;;;;;;
2019/07/24 19:35:52;;;;;;;15;8.6;;;;;;;;;;;;;
2019/07/24 19:38:32;;;;;;;11.1;7.9;;;;;;;;;;;;;
2019/07/24 19:41:08;;;;;;;8.7;7.7;;;;;;;;;;;;;
2019/07/24 19:43:42;;;;;;;11.3;7.8;;;;;;;;;;;;;
2019/07/24 19:46:39;;;;;;;14.1;8.3;;;;;;;;;;;;;
2019/07/24 19:49:23;;;;;;;11.2;8;;;;;;;;;;;;;
2019/07/24 19:52:01;;;;;;;10.8;7.9;;;;;;;;;;;;;
2019/07/24 19:54:38;;;;;;;10.3;8.2;;;;;;;;;;;;;
2019/07/24 19:57:15;;;;;;;12.1;8.1;;;;;;;;;;;;;
2019/07/24 19:59:55;;;;;;;10.6;8.2;;;;;;;;;;;;;
2019/07/24 20:02:38;;;;;;;10.8;8.3;;;;;;;;;;;;;
2019/07/24 20:05:14;;;;;;;10;8;;;;;;;;;;;;;
2019/07/24 20:07:49;;;;;;;11.7;8.3;;;;;;;;;;;;;
2019/07/24 20:10:25;;;;;;;11.9;8.4;;;;;;;;;;;;;
2019/07/24 20:13:01;;;;;;;11;8.7;;;;;;;;;;;;;
2019/07/24 20:15:43;;;;;;;11.9;8.9;;;;;;;;;;;;;
2019/07/24 20:18:19;;;;;;;14.4;8.9;;;;;;;;;;;;;
2019/07/24 20:20:53;;;;;;;13.6;8.4;;;;;;;;;;;;;
2019/07/24 20:23:27;;;;;;;11.3;8;;;;;;;;;;;;;
2019/07/24 20:26:03;;;;;;;11.6;8.2;;;;;;;;;;;;;
2019/07/24 20:28:38;;;;;;;11.4;8.8;;;;;;;;;;;;;
2019/07/24 20:31:16;;;;;;;12.8;10.1;;;;;;;;;;;;;
2019/07/24 20:33:55;;;;;;;14.5;8.6;;;;;;;;;;;;;
2019/07/24 20:36:35;;;;;;;10.8;8.3;;;;;;;;;;;;;
2019/07/24 20:39:14;;;;;;;9.8;8.1;;;;;;;;;;;;;
2019/07/24 20:41:58;;;;;;;10.8;7.6;;;;;;;;;;;;;
2019/07/24 20:44:32;;;;;;;10.5;8.2;;;;;;;;;;;;;
2019/07/24 20:47:08;;;;;;;13.8;8.4;;;;;;;;;;;;;
2019/07/24 20:49:47;;;;;;;11.7;8.6;;;;;;;;;;;;;
2019/07/24 20:52:23;;;;;;;10.6;8.5;;;;;;;;;;;;;
2019/07/24 20:55:10;;;;;;;11;8.6;;;;;;;;;;;;;
2019/07/24 20:57:45;;;;;;;14.9;9.1;;;;;;;;;;;;;
2019/07/24 21:00:28;;;;;;;10.6;8.8;;;;;;;;;;;;;
2019/07/24 21:03:09;;;;;;;11.4;8.5;;;;;;;;;;;;;
2019/07/24 21:05:43;;;;;;;9.5;8.4;;;;;;;;;;;;;
2019/07/24 21:08:21;;;;;;;9.7;8.6;;;;;;;;;;;;;
2019/07/24 21:13:51;;;;;;;14.8;9.2;;;;;;;;;;;;;
2019/07/24 21:16:25;;;;;;;12.2;9;;;;;;;;;;;;;
2019/07/24 21:19:02;;;;;;;14.5;9.5;;;;;;;;;;;;;
2019/07/24 21:21:41;;;;;;;13.3;8.4;;;;;;;;;;;;;
2019/07/24 21:24:17;;;;;;;11.8;8.5;;;;;;;;;;;;;
2019/07/24 21:26:52;;;;;;;10.7;9.1;;;;;;;;;;;;;
2019/07/24 21:29:32;;;;;;;11.1;8.9;;;;;;;;;;;;;